メインページ
METAR-TAF:

METAR-TAF

空港 :

フォス・ド・イグアス, パラナ州, ブラジル

フォス・ド・イグアス国際空港

緯度: 25-31S, 経度: 054-35W, 海抜: 180m

現時点の気象観測

当レポートは18分前の02:00(UTC)に作成
無風
気温 17°C
湿度 100%
気圧 1020 hPa
視程10km以上
1,500メートル以下は雲なし、積乱雲なし

METAR: SBFI 010200Z 00000KT CAVOK 17/17 Q1020

時間: 23:18 (02:18 UTC)

予報

当レポートは4時間48分前の21:30(UTC)に作成
予報は01日の 00時(UTC)から 01日の 24時(UTC)まで有効
の風 5kt
視程10km以上
1,500メートル以下は雲なし、積乱雲なし
01日の 14時(UTC)から 01日の 16時(UTC)まで徐々に
北/北東の風 5kt
視程10km以上
高度4000ftの雲はほとんどない

TAF: SBFI 302130Z 0100/0124 09005KT CAVOK TN16/0108Z TX26/0118Z BECMG 0114/0116 03005KT 9999 FEW040 RMK PDW

4,000以上の空港の気象観測と天気予報(METAR報とTAF報)

利用可能な観測所は地図上に黄色い丸と赤い丸で示す。

丸の上にカーソルを重ねると観測所名を参照できる。

次にクリックすると気象観測と天気予報を参照できる。

マップの切り替え:黒色「×」印の緑ボタンをクリックして拡大、「-」印の緑ボタンをクリックして縮小、緑色の三角印をクリックして隣りの地図に切り替え


METAR-TAF: